Terminal Aerodrome Forecast
Issued by NWS Tallahassee, FL

Home | Current Version | Previous Version | Text Only | Print | Product List | Glossary On
Versions: 1 2 3 4 5 6 7 8 9 10 11 12 13 14 15 16 17 18
692
FTUS42 KTAE 302339
TAFTLH
TAF
KTLH 302339Z 0100/0124 16005KT P6SM SCT150 BKN200
     FM011000 00000KT 2SM BR SCT004
     FM011400 17008KT P6SM SCT030
     FM011900 19010KT P6SM SCT040=

USA.gov is the U.S. government's official web portal to all federal, state and local government web resources and services.